sensor_id;sensor_type;location;lat;lon;timestamp;P1;durP1;ratioP1;P2;durP2;ratioP2
9140;SDS011;46330;50.822;7.126;2023-02-23T00:01:51;39.50;;;26.90;;
9140;SDS011;46330;50.822;7.126;2023-02-23T00:04:19;37.92;;;26.33;;
9140;SDS011;46330;50.822;7.126;2023-02-23T00:06:48;37.38;;;26.95;;
9140;SDS011;46330;50.822;7.126;2023-02-23T00:09:17;39.15;;;26.30;;
9140;SDS011;46330;50.822;7.126;2023-02-23T00:11:51;36.63;;;26.35;;
9140;SDS011;46330;50.822;7.126;2023-02-23T00:14:22;38.78;;;27.17;;
9140;SDS011;46330;50.822;7.126;2023-02-23T00:16:52;37.13;;;26.85;;
9140;SDS011;46330;50.822;7.126;2023-02-23T00:19:20;41.33;;;27.20;;
9140;SDS011;46330;50.822;7.126;2023-02-23T00:21:50;39.38;;;27.30;;
9140;SDS011;46330;50.822;7.126;2023-02-23T00:24:18;36.22;;;26.48;;
9140;SDS011;46330;50.822;7.126;2023-02-23T00:26:47;38.38;;;27.65;;
9140;SDS011;46330;50.822;7.126;2023-02-23T00:29:18;44.65;;;28.50;;
9140;SDS011;46330;50.822;7.126;2023-02-23T00:31:48;41.78;;;29.63;;
9140;SDS011;46330;50.822;7.126;2023-02-23T00:34:18;40.63;;;28.77;;
9140;SDS011;46330;50.822;7.126;2023-02-23T00:36:48;41.30;;;29.65;;
9140;SDS011;46330;50.822;7.126;2023-02-23T00:39:16;40.20;;;28.75;;
9140;SDS011;46330;50.822;7.126;2023-02-23T00:41:47;41.85;;;28.67;;
9140;SDS011;46330;50.822;7.126;2023-02-23T00:44:15;41.80;;;29.70;;
9140;SDS011;46330;50.822;7.126;2023-02-23T00:46:45;40.90;;;29.02;;
9140;SDS011;46330;50.822;7.126;2023-02-23T00:49:16;39.55;;;28.77;;
9140;SDS011;46330;50.822;7.126;2023-02-23T00:51:45;44.03;;;27.70;;
9140;SDS011;46330;50.822;7.126;2023-02-23T00:54:13;41.70;;;28.17;;
9140;SDS011;46330;50.822;7.126;2023-02-23T00:56:43;44.03;;;29.75;;
9140;SDS011;46330;50.822;7.126;2023-02-23T00:59:12;43.78;;;30.20;;
9140;SDS011;46330;50.822;7.126;2023-02-23T01:01:40;42.83;;;29.52;;
9140;SDS011;46330;50.822;7.126;2023-02-23T01:04:10;42.13;;;29.70;;
9140;SDS011;46330;50.822;7.126;2023-02-23T01:06:39;38.53;;;27.98;;
9140;SDS011;46330;50.822;7.126;2023-02-23T01:09:09;39.13;;;28.60;;
9140;SDS011;46330;50.822;7.126;2023-02-23T01:11:39;40.72;;;28.50;;
9140;SDS011;46330;50.822;7.126;2023-02-23T01:14:08;44.75;;;30.00;;
9140;SDS011;46330;50.822;7.126;2023-02-23T01:16:39;39.60;;;28.83;;
9140;SDS011;46330;50.822;7.126;2023-02-23T01:19:09;43.65;;;29.75;;
9140;SDS011;46330;50.822;7.126;2023-02-23T01:21:41;43.13;;;28.73;;
9140;SDS011;46330;50.822;7.126;2023-02-23T01:24:10;40.45;;;29.02;;
9140;SDS011;46330;50.822;7.126;2023-02-23T01:26:40;41.05;;;28.55;;
9140;SDS011;46330;50.822;7.126;2023-02-23T01:29:10;42.65;;;29.48;;
9140;SDS011;46330;50.822;7.126;2023-02-23T01:31:41;42.50;;;29.33;;
9140;SDS011;46330;50.822;7.126;2023-02-23T01:34:15;42.15;;;29.33;;
9140;SDS011;46330;50.822;7.126;2023-02-23T01:36:43;41.15;;;28.88;;
9140;SDS011;46330;50.822;7.126;2023-02-23T01:39:12;44.92;;;29.10;;
9140;SDS011;46330;50.822;7.126;2023-02-23T01:41:42;43.92;;;29.52;;
9140;SDS011;46330;50.822;7.126;2023-02-23T01:47:16;42.97;;;30.10;;
9140;SDS011;46330;50.822;7.126;2023-02-23T01:49:47;40.03;;;29.30;;
9140;SDS011;46330;50.822;7.126;2023-02-23T01:52:16;42.50;;;30.52;;
9140;SDS011;46330;50.822;7.126;2023-02-23T01:54:47;45.22;;;30.90;;
9140;SDS011;46330;50.822;7.126;2023-02-23T01:57:19;41.10;;;29.13;;
9140;SDS011;46330;50.822;7.126;2023-02-23T01:59:51;42.30;;;27.70;;
9140;SDS011;46330;50.822;7.126;2023-02-23T02:02:22;40.13;;;27.30;;
9140;SDS011;46330;50.822;7.126;2023-02-23T02:05:00;41.38;;;27.33;;
9140;SDS011;46330;50.822;7.126;2023-02-23T02:07:33;38.95;;;27.52;;
9140;SDS011;46330;50.822;7.126;2023-02-23T02:10:02;36.30;;;27.08;;
9140;SDS011;46330;50.822;7.126;2023-02-23T02:12:49;37.63;;;27.60;;
9140;SDS011;46330;50.822;7.126;2023-02-23T02:15:21;37.63;;;25.65;;
9140;SDS011;46330;50.822;7.126;2023-02-23T02:18:00;35.38;;;25.80;;
9140;SDS011;46330;50.822;7.126;2023-02-23T02:20:44;34.55;;;24.67;;
9140;SDS011;46330;50.822;7.126;2023-02-23T02:26:49;36.85;;;25.02;;
9140;SDS011;46330;50.822;7.126;2023-02-23T02:29:38;36.00;;;25.92;;
9140;SDS011;46330;50.822;7.126;2023-02-23T02:33:01;38.55;;;25.50;;
9140;SDS011;46330;50.822;7.126;2023-02-23T02:35:55;37.88;;;26.38;;
9140;SDS011;46330;50.822;7.126;2023-02-23T02:38:52;37.65;;;26.30;;
9140;SDS011;46330;50.822;7.126;2023-02-23T02:41:34;39.15;;;27.08;;
9140;SDS011;46330;50.822;7.126;2023-02-23T02:44:12;43.72;;;30.40;;
9140;SDS011;46330;50.822;7.126;2023-02-23T02:46:45;47.35;;;30.73;;
9140;SDS011;46330;50.822;7.126;2023-02-23T02:49:21;47.00;;;31.60;;
9140;SDS011;46330;50.822;7.126;2023-02-23T02:51:54;45.63;;;32.70;;
9140;SDS011;46330;50.822;7.126;2023-02-23T02:54:29;49.20;;;32.63;;
9140;SDS011;46330;50.822;7.126;2023-02-23T02:57:02;45.97;;;33.30;;
9140;SDS011;46330;50.822;7.126;2023-02-23T02:59:41;48.75;;;32.92;;
9140;SDS011;46330;50.822;7.126;2023-02-23T03:02:27;49.92;;;32.75;;
9140;SDS011;46330;50.822;7.126;2023-02-23T03:05:17;49.97;;;32.22;;
9140;SDS011;46330;50.822;7.126;2023-02-23T03:08:08;48.08;;;32.92;;
9140;SDS011;46330;50.822;7.126;2023-02-23T03:11:02;48.85;;;32.42;;
9140;SDS011;46330;50.822;7.126;2023-02-23T03:13:57;51.85;;;33.72;;
9140;SDS011;46330;50.822;7.126;2023-02-23T03:16:56;53.42;;;33.90;;
9140;SDS011;46330;50.822;7.126;2023-02-23T03:19:51;53.42;;;34.13;;
9140;SDS011;46330;50.822;7.126;2023-02-23T03:22:43;49.85;;;33.15;;
9140;SDS011;46330;50.822;7.126;2023-02-23T03:25:39;50.42;;;32.67;;
9140;SDS011;46330;50.822;7.126;2023-02-23T03:28:33;53.00;;;34.08;;
9140;SDS011;46330;50.822;7.126;2023-02-23T03:31:26;50.05;;;33.40;;
9140;SDS011;46330;50.822;7.126;2023-02-23T03:34:24;50.60;;;33.13;;
9140;SDS011;46330;50.822;7.126;2023-02-23T03:37:15;47.30;;;32.58;;
9140;SDS011;46330;50.822;7.126;2023-02-23T03:40:09;49.58;;;33.22;;
9140;SDS011;46330;50.822;7.126;2023-02-23T03:43:00;53.58;;;35.50;;
9140;SDS011;46330;50.822;7.126;2023-02-23T03:45:52;57.42;;;35.33;;
9140;SDS011;46330;50.822;7.126;2023-02-23T03:48:40;58.03;;;36.00;;
9140;SDS011;46330;50.822;7.126;2023-02-23T03:51:29;59.38;;;37.05;;
9140;SDS011;46330;50.822;7.126;2023-02-23T03:54:19;58.78;;;37.92;;
9140;SDS011;46330;50.822;7.126;2023-02-23T03:57:12;57.65;;;37.15;;
9140;SDS011;46330;50.822;7.126;2023-02-23T04:00:04;64.43;;;38.35;;
9140;SDS011;46330;50.822;7.126;2023-02-23T04:02:54;59.47;;;38.58;;
9140;SDS011;46330;50.822;7.126;2023-02-23T04:05:42;62.28;;;38.22;;
9140;SDS011;46330;50.822;7.126;2023-02-23T04:08:29;62.63;;;38.60;;
9140;SDS011;46330;50.822;7.126;2023-02-23T04:11:20;59.20;;;37.25;;
9140;SDS011;46330;50.822;7.126;2023-02-23T04:14:13;63.45;;;39.33;;
9140;SDS011;46330;50.822;7.126;2023-02-23T04:16:43;64.32;;;39.30;;
9140;SDS011;46330;50.822;7.126;2023-02-23T04:19:12;61.22;;;38.80;;
9140;SDS011;46330;50.822;7.126;2023-02-23T04:21:40;65.82;;;39.28;;
9140;SDS011;46330;50.822;7.126;2023-02-23T04:24:08;67.07;;;41.33;;
9140;SDS011;46330;50.822;7.126;2023-02-23T04:26:37;65.57;;;40.72;;
9140;SDS011;46330;50.822;7.126;2023-02-23T04:29:05;66.13;;;41.30;;
9140;SDS011;46330;50.822;7.126;2023-02-23T04:31:33;68.32;;;40.53;;
9140;SDS011;46330;50.822;7.126;2023-02-23T04:34:01;63.90;;;39.88;;
9140;SDS011;46330;50.822;7.126;2023-02-23T04:36:31;66.47;;;39.83;;
9140;SDS011;46330;50.822;7.126;2023-02-23T04:38:59;68.05;;;41.08;;
9140;SDS011;46330;50.822;7.126;2023-02-23T04:41:27;65.90;;;41.45;;
9140;SDS011;46330;50.822;7.126;2023-02-23T04:43:55;69.32;;;41.90;;
9140;SDS011;46330;50.822;7.126;2023-02-23T04:46:23;67.88;;;40.60;;
9140;SDS011;46330;50.822;7.126;2023-02-23T04:48:52;68.55;;;42.08;;
9140;SDS011;46330;50.822;7.126;2023-02-23T04:51:20;73.75;;;42.60;;
9140;SDS011;46330;50.822;7.126;2023-02-23T04:53:50;69.55;;;42.63;;
9140;SDS011;46330;50.822;7.126;2023-02-23T04:56:18;68.30;;;42.72;;
9140;SDS011;46330;50.822;7.126;2023-02-23T04:58:45;73.78;;;42.15;;
9140;SDS011;46330;50.822;7.126;2023-02-23T05:01:14;77.40;;;44.88;;
9140;SDS011;46330;50.822;7.126;2023-02-23T05:03:43;93.07;;;53.28;;
9140;SDS011;46330;50.822;7.126;2023-02-23T05:06:11;70.57;;;43.25;;
9140;SDS011;46330;50.822;7.126;2023-02-23T05:08:39;74.60;;;44.15;;
9140;SDS011;46330;50.822;7.126;2023-02-23T05:11:08;77.72;;;44.03;;
9140;SDS011;46330;50.822;7.126;2023-02-23T05:13:36;69.65;;;42.67;;
9140;SDS011;46330;50.822;7.126;2023-02-23T05:16:05;72.18;;;43.28;;
9140;SDS011;46330;50.822;7.126;2023-02-23T05:18:34;71.45;;;43.55;;
9140;SDS011;46330;50.822;7.126;2023-02-23T05:21:02;73.95;;;45.35;;
9140;SDS011;46330;50.822;7.126;2023-02-23T05:23:34;71.75;;;43.30;;
9140;SDS011;46330;50.822;7.126;2023-02-23T05:26:04;74.20;;;43.63;;
9140;SDS011;46330;50.822;7.126;2023-02-23T05:28:35;83.93;;;48.83;;
9140;SDS011;46330;50.822;7.126;2023-02-23T05:31:04;76.82;;;45.03;;
9140;SDS011;46330;50.822;7.126;2023-02-23T05:33:33;78.80;;;45.60;;
9140;SDS011;46330;50.822;7.126;2023-02-23T05:36:08;77.32;;;45.80;;
9140;SDS011;46330;50.822;7.126;2023-02-23T05:38:37;77.78;;;45.05;;
9140;SDS011;46330;50.822;7.126;2023-02-23T05:41:06;75.32;;;46.25;;
9140;SDS011;46330;50.822;7.126;2023-02-23T05:43:36;74.85;;;44.25;;
9140;SDS011;46330;50.822;7.126;2023-02-23T05:46:05;73.80;;;45.15;;
9140;SDS011;46330;50.822;7.126;2023-02-23T05:48:34;81.20;;;45.97;;
9140;SDS011;46330;50.822;7.126;2023-02-23T05:51:03;77.30;;;45.38;;
9140;SDS011;46330;50.822;7.126;2023-02-23T05:53:32;79.50;;;45.13;;
9140;SDS011;46330;50.822;7.126;2023-02-23T05:56:01;78.10;;;45.13;;
9140;SDS011;46330;50.822;7.126;2023-02-23T05:58:30;79.57;;;45.38;;
9140;SDS011;46330;50.822;7.126;2023-02-23T06:00:59;78.95;;;45.90;;
9140;SDS011;46330;50.822;7.126;2023-02-23T06:03:27;80.15;;;45.50;;
9140;SDS011;46330;50.822;7.126;2023-02-23T06:05:55;74.80;;;44.78;;
9140;SDS011;46330;50.822;7.126;2023-02-23T06:08:24;76.25;;;44.10;;
9140;SDS011;46330;50.822;7.126;2023-02-23T06:10:53;81.30;;;45.33;;
9140;SDS011;46330;50.822;7.126;2023-02-23T06:13:20;72.35;;;43.20;;
9140;SDS011;46330;50.822;7.126;2023-02-23T06:15:48;75.20;;;44.47;;
9140;SDS011;46330;50.822;7.126;2023-02-23T06:18:18;76.07;;;45.50;;
9140;SDS011;46330;50.822;7.126;2023-02-23T06:20:47;72.85;;;43.63;;
9140;SDS011;46330;50.822;7.126;2023-02-23T06:23:15;70.85;;;43.05;;
9140;SDS011;46330;50.822;7.126;2023-02-23T06:25:44;70.00;;;43.53;;
9140;SDS011;46330;50.822;7.126;2023-02-23T06:28:13;73.53;;;43.28;;
9140;SDS011;46330;50.822;7.126;2023-02-23T06:30:41;68.03;;;42.10;;
9140;SDS011;46330;50.822;7.126;2023-02-23T06:33:10;71.63;;;42.65;;
9140;SDS011;46330;50.822;7.126;2023-02-23T06:35:39;67.47;;;41.78;;
9140;SDS011;46330;50.822;7.126;2023-02-23T06:38:07;69.28;;;41.88;;
9140;SDS011;46330;50.822;7.126;2023-02-23T06:40:36;67.85;;;41.22;;
9140;SDS011;46330;50.822;7.126;2023-02-23T06:43:04;67.15;;;41.33;;
9140;SDS011;46330;50.822;7.126;2023-02-23T06:45:32;74.30;;;42.38;;
9140;SDS011;46330;50.822;7.126;2023-02-23T06:48:00;66.32;;;40.60;;
9140;SDS011;46330;50.822;7.126;2023-02-23T06:50:28;66.15;;;42.42;;
9140;SDS011;46330;50.822;7.126;2023-02-23T06:52:57;73.90;;;45.08;;
9140;SDS011;46330;50.822;7.126;2023-02-23T06:55:25;68.43;;;41.85;;
9140;SDS011;46330;50.822;7.126;2023-02-23T06:57:53;63.47;;;39.70;;
9140;SDS011;46330;50.822;7.126;2023-02-23T07:00:21;61.30;;;39.42;;
9140;SDS011;46330;50.822;7.126;2023-02-23T07:02:50;62.10;;;39.55;;
9140;SDS011;46330;50.822;7.126;2023-02-23T07:05:17;66.20;;;39.42;;
9140;SDS011;46330;50.822;7.126;2023-02-23T07:07:46;65.93;;;39.97;;
9140;SDS011;46330;50.822;7.126;2023-02-23T07:10:16;63.58;;;39.38;;
9140;SDS011;46330;50.822;7.126;2023-02-23T07:12:44;64.18;;;39.47;;
9140;SDS011;46330;50.822;7.126;2023-02-23T07:15:12;63.10;;;39.17;;
9140;SDS011;46330;50.822;7.126;2023-02-23T07:17:43;63.92;;;39.20;;
9140;SDS011;46330;50.822;7.126;2023-02-23T07:20:14;64.72;;;40.13;;
9140;SDS011;46330;50.822;7.126;2023-02-23T07:22:42;66.70;;;39.67;;
9140;SDS011;46330;50.822;7.126;2023-02-23T07:25:10;68.90;;;39.28;;
9140;SDS011;46330;50.822;7.126;2023-02-23T07:27:40;62.85;;;38.47;;
9140;SDS011;46330;50.822;7.126;2023-02-23T07:30:10;80.05;;;46.03;;
9140;SDS011;46330;50.822;7.126;2023-02-23T07:32:39;74.20;;;42.67;;
9140;SDS011;46330;50.822;7.126;2023-02-23T07:35:07;66.47;;;40.15;;
9140;SDS011;46330;50.822;7.126;2023-02-23T07:37:35;68.90;;;39.33;;
9140;SDS011;46330;50.822;7.126;2023-02-23T07:40:03;71.50;;;39.22;;
9140;SDS011;46330;50.822;7.126;2023-02-23T07:42:32;70.15;;;40.92;;
9140;SDS011;46330;50.822;7.126;2023-02-23T07:45:01;66.32;;;41.13;;
9140;SDS011;46330;50.822;7.126;2023-02-23T07:47:29;66.72;;;39.53;;
9140;SDS011;46330;50.822;7.126;2023-02-23T07:49:57;68.72;;;40.17;;
9140;SDS011;46330;50.822;7.126;2023-02-23T07:52:27;69.65;;;41.15;;
9140;SDS011;46330;50.822;7.126;2023-02-23T07:54:56;71.97;;;40.47;;
9140;SDS011;46330;50.822;7.126;2023-02-23T07:57:24;69.50;;;40.92;;
9140;SDS011;46330;50.822;7.126;2023-02-23T07:59:52;68.82;;;40.28;;
9140;SDS011;46330;50.822;7.126;2023-02-23T08:02:21;73.43;;;40.53;;
9140;SDS011;46330;50.822;7.126;2023-02-23T08:04:49;70.40;;;40.13;;
9140;SDS011;46330;50.822;7.126;2023-02-23T08:07:19;66.25;;;40.13;;
9140;SDS011;46330;50.822;7.126;2023-02-23T08:09:47;68.82;;;39.55;;
9140;SDS011;46330;50.822;7.126;2023-02-23T08:12:15;61.75;;;38.13;;
9140;SDS011;46330;50.822;7.126;2023-02-23T08:14:43;66.53;;;39.15;;
9140;SDS011;46330;50.822;7.126;2023-02-23T08:17:11;66.40;;;38.92;;
9140;SDS011;46330;50.822;7.126;2023-02-23T08:19:40;70.28;;;38.15;;
9140;SDS011;46330;50.822;7.126;2023-02-23T08:22:08;65.80;;;39.28;;
9140;SDS011;46330;50.822;7.126;2023-02-23T08:24:37;66.10;;;39.05;;
9140;SDS011;46330;50.822;7.126;2023-02-23T08:27:04;71.57;;;40.92;;
9140;SDS011;46330;50.822;7.126;2023-02-23T08:29:32;64.68;;;38.65;;
9140;SDS011;46330;50.822;7.126;2023-02-23T08:32:01;67.00;;;38.30;;
9140;SDS011;46330;50.822;7.126;2023-02-23T08:34:30;63.83;;;38.20;;
9140;SDS011;46330;50.822;7.126;2023-02-23T08:37:00;63.20;;;37.90;;
9140;SDS011;46330;50.822;7.126;2023-02-23T08:39:28;62.40;;;36.15;;
9140;SDS011;46330;50.822;7.126;2023-02-23T08:41:55;57.50;;;35.47;;
9140;SDS011;46330;50.822;7.126;2023-02-23T08:44:23;60.90;;;36.28;;
9140;SDS011;46330;50.822;7.126;2023-02-23T08:46:51;59.13;;;35.55;;
9140;SDS011;46330;50.822;7.126;2023-02-23T08:49:21;54.78;;;33.25;;
9140;SDS011;46330;50.822;7.126;2023-02-23T08:51:49;56.30;;;33.20;;
9140;SDS011;46330;50.822;7.126;2023-02-23T08:54:18;56.33;;;33.83;;
9140;SDS011;46330;50.822;7.126;2023-02-23T08:56:46;54.28;;;32.75;;
9140;SDS011;46330;50.822;7.126;2023-02-23T08:59:14;53.05;;;32.58;;
9140;SDS011;46330;50.822;7.126;2023-02-23T09:01:43;55.35;;;32.47;;
9140;SDS011;46330;50.822;7.126;2023-02-23T09:04:11;53.25;;;32.63;;
9140;SDS011;46330;50.822;7.126;2023-02-23T09:06:40;53.97;;;32.92;;
9140;SDS011;46330;50.822;7.126;2023-02-23T09:09:08;53.30;;;32.70;;
9140;SDS011;46330;50.822;7.126;2023-02-23T09:11:37;50.88;;;32.38;;
9140;SDS011;46330;50.822;7.126;2023-02-23T09:14:05;56.10;;;32.90;;
9140;SDS011;46330;50.822;7.126;2023-02-23T09:16:34;54.63;;;31.60;;
9140;SDS011;46330;50.822;7.126;2023-02-23T09:19:02;52.40;;;32.30;;
9140;SDS011;46330;50.822;7.126;2023-02-23T09:21:30;52.80;;;32.35;;
9140;SDS011;46330;50.822;7.126;2023-02-23T09:23:59;54.33;;;33.25;;
9140;SDS011;46330;50.822;7.126;2023-02-23T09:26:27;59.33;;;33.17;;
9140;SDS011;46330;50.822;7.126;2023-02-23T09:28:59;57.53;;;33.65;;
9140;SDS011;46330;50.822;7.126;2023-02-23T09:31:29;55.13;;;32.85;;
9140;SDS011;46330;50.822;7.126;2023-02-23T09:33:57;53.90;;;32.65;;
9140;SDS011;46330;50.822;7.126;2023-02-23T09:36:25;58.45;;;33.17;;
9140;SDS011;46330;50.822;7.126;2023-02-23T09:38:54;56.42;;;32.28;;
9140;SDS011;46330;50.822;7.126;2023-02-23T09:44:28;57.15;;;32.83;;
9140;SDS011;46330;50.822;7.126;2023-02-23T09:47:12;54.88;;;31.73;;
9140;SDS011;46330;50.822;7.126;2023-02-23T09:49:52;54.70;;;33.05;;
9140;SDS011;46330;50.822;7.126;2023-02-23T09:52:24;54.08;;;31.50;;
9140;SDS011;46330;50.822;7.126;2023-02-23T09:54:55;50.05;;;30.48;;
9140;SDS011;46330;50.822;7.126;2023-02-23T09:57:27;53.28;;;31.92;;
9140;SDS011;46330;50.822;7.126;2023-02-23T10:00:11;50.25;;;30.08;;
9140;SDS011;46330;50.822;7.126;2023-02-23T10:02:56;52.03;;;30.60;;
9140;SDS011;46330;50.822;7.126;2023-02-23T10:05:34;50.03;;;30.80;;
9140;SDS011;46330;50.822;7.126;2023-02-23T10:08:16;49.10;;;29.80;;
9140;SDS011;46330;50.822;7.126;2023-02-23T10:10:50;48.03;;;28.65;;
9140;SDS011;46330;50.822;7.126;2023-02-23T10:13:28;50.13;;;29.00;;
9140;SDS011;46330;50.822;7.126;2023-02-23T10:16:08;48.47;;;28.02;;
9140;SDS011;46330;50.822;7.126;2023-02-23T10:18:45;48.92;;;29.75;;
9140;SDS011;46330;50.822;7.126;2023-02-23T10:21:23;50.90;;;29.15;;
9140;SDS011;46330;50.822;7.126;2023-02-23T10:23:58;49.88;;;29.23;;
9140;SDS011;46330;50.822;7.126;2023-02-23T10:26:32;45.60;;;27.33;;
9140;SDS011;46330;50.822;7.126;2023-02-23T10:29:06;47.28;;;26.45;;
9140;SDS011;46330;50.822;7.126;2023-02-23T10:31:50;46.58;;;27.48;;
9140;SDS011;46330;50.822;7.126;2023-02-23T10:34:22;45.10;;;27.75;;
9140;SDS011;46330;50.822;7.126;2023-02-23T10:36:56;45.55;;;27.33;;
9140;SDS011;46330;50.822;7.126;2023-02-23T10:39:26;44.55;;;27.13;;
9140;SDS011;46330;50.822;7.126;2023-02-23T10:41:55;45.22;;;26.98;;
9140;SDS011;46330;50.822;7.126;2023-02-23T10:44:26;43.35;;;26.05;;
9140;SDS011;46330;50.822;7.126;2023-02-23T10:46:57;38.13;;;24.08;;
9140;SDS011;46330;50.822;7.126;2023-02-23T10:49:38;41.33;;;24.40;;
9140;SDS011;46330;50.822;7.126;2023-02-23T10:52:10;38.33;;;24.35;;
9140;SDS011;46330;50.822;7.126;2023-02-23T10:54:41;37.42;;;24.00;;
9140;SDS011;46330;50.822;7.126;2023-02-23T10:57:20;36.25;;;22.98;;
9140;SDS011;46330;50.822;7.126;2023-02-23T11:00:03;36.17;;;23.20;;
9140;SDS011;46330;50.822;7.126;2023-02-23T11:02:37;41.15;;;24.00;;
9140;SDS011;46330;50.822;7.126;2023-02-23T11:05:12;37.70;;;24.15;;
9140;SDS011;46330;50.822;7.126;2023-02-23T11:08:10;45.22;;;26.70;;
9140;SDS011;46330;50.822;7.126;2023-02-23T11:10:53;44.85;;;25.80;;
9140;SDS011;46330;50.822;7.126;2023-02-23T11:13:23;41.35;;;23.77;;
9140;SDS011;46330;50.822;7.126;2023-02-23T11:15:57;44.60;;;26.60;;
9140;SDS011;46330;50.822;7.126;2023-02-23T11:18:28;37.42;;;23.75;;
9140;SDS011;46330;50.822;7.126;2023-02-23T11:20:57;38.35;;;23.95;;
9140;SDS011;46330;50.822;7.126;2023-02-23T11:23:26;39.40;;;23.20;;
9140;SDS011;46330;50.822;7.126;2023-02-23T11:25:56;40.35;;;23.38;;
9140;SDS011;46330;50.822;7.126;2023-02-23T11:28:28;36.88;;;23.25;;
9140;SDS011;46330;50.822;7.126;2023-02-23T11:30:59;35.35;;;22.80;;
9140;SDS011;46330;50.822;7.126;2023-02-23T11:33:32;35.58;;;21.90;;
9140;SDS011;46330;50.822;7.126;2023-02-23T11:36:13;35.45;;;21.45;;
9140;SDS011;46330;50.822;7.126;2023-02-23T11:38:56;34.33;;;22.10;;
9140;SDS011;46330;50.822;7.126;2023-02-23T11:41:30;38.63;;;21.85;;
9140;SDS011;46330;50.822;7.126;2023-02-23T11:44:01;36.53;;;22.27;;
9140;SDS011;46330;50.822;7.126;2023-02-23T11:46:32;35.30;;;20.98;;
9140;SDS011;46330;50.822;7.126;2023-02-23T11:49:06;35.22;;;21.92;;
9140;SDS011;46330;50.822;7.126;2023-02-23T11:51:39;34.93;;;22.27;;
9140;SDS011;46330;50.822;7.126;2023-02-23T11:54:16;30.75;;;20.00;;
9140;SDS011;46330;50.822;7.126;2023-02-23T11:56:48;32.33;;;20.40;;
9140;SDS011;46330;50.822;7.126;2023-02-23T11:59:18;30.77;;;20.23;;
9140;SDS011;46330;50.822;7.126;2023-02-23T12:01:52;30.75;;;20.45;;
9140;SDS011;46330;50.822;7.126;2023-02-23T12:04:25;32.28;;;20.33;;
9140;SDS011;46330;50.822;7.126;2023-02-23T12:10:06;34.05;;;21.13;;
9140;SDS011;46330;50.822;7.126;2023-02-23T12:12:49;32.47;;;20.35;;
9140;SDS011;46330;50.822;7.126;2023-02-23T12:15:27;31.77;;;21.73;;
9140;SDS011;46330;50.822;7.126;2023-02-23T12:18:04;33.28;;;21.00;;
9140;SDS011;46330;50.822;7.126;2023-02-23T12:20:42;30.23;;;19.92;;
9140;SDS011;46330;50.822;7.126;2023-02-23T12:23:14;33.72;;;19.25;;
9140;SDS011;46330;50.822;7.126;2023-02-23T12:25:46;27.83;;;19.38;;
9140;SDS011;46330;50.822;7.126;2023-02-23T12:28:21;32.38;;;19.77;;
9140;SDS011;46330;50.822;7.126;2023-02-23T12:30:56;31.42;;;20.98;;
9140;SDS011;46330;50.822;7.126;2023-02-23T12:33:28;30.92;;;21.40;;
9140;SDS011;46330;50.822;7.126;2023-02-23T12:36:08;31.77;;;21.52;;
9140;SDS011;46330;50.822;7.126;2023-02-23T12:38:47;38.25;;;22.17;;
9140;SDS011;46330;50.822;7.126;2023-02-23T12:41:20;35.67;;;21.88;;
9140;SDS011;46330;50.822;7.126;2023-02-23T12:43:58;34.40;;;22.48;;
9140;SDS011;46330;50.822;7.126;2023-02-23T12:46:30;41.15;;;23.35;;
9140;SDS011;46330;50.822;7.126;2023-02-23T12:49:09;44.33;;;23.13;;
9140;SDS011;46330;50.822;7.126;2023-02-23T12:51:46;41.70;;;24.40;;
9140;SDS011;46330;50.822;7.126;2023-02-23T12:54:18;44.22;;;24.70;;
9140;SDS011;46330;50.822;7.126;2023-02-23T12:56:49;44.70;;;25.23;;
9140;SDS011;46330;50.822;7.126;2023-02-23T13:02:20;38.40;;;22.63;;
9140;SDS011;46330;50.822;7.126;2023-02-23T13:04:56;41.85;;;23.60;;
9140;SDS011;46330;50.822;7.126;2023-02-23T13:07:44;41.95;;;24.25;;
9140;SDS011;46330;50.822;7.126;2023-02-23T13:10:39;41.30;;;23.73;;
9140;SDS011;46330;50.822;7.126;2023-02-23T13:13:18;40.80;;;22.55;;
9140;SDS011;46330;50.822;7.126;2023-02-23T13:15:58;43.15;;;23.25;;
9140;SDS011;46330;50.822;7.126;2023-02-23T13:18:33;46.15;;;23.25;;
9140;SDS011;46330;50.822;7.126;2023-02-23T13:21:10;47.72;;;23.45;;
9140;SDS011;46330;50.822;7.126;2023-02-23T13:23:52;45.63;;;22.23;;
9140;SDS011;46330;50.822;7.126;2023-02-23T13:26:27;42.70;;;20.42;;
9140;SDS011;46330;50.822;7.126;2023-02-23T13:29:05;40.97;;;20.38;;
9140;SDS011;46330;50.822;7.126;2023-02-23T13:31:41;44.55;;;21.83;;
9140;SDS011;46330;50.822;7.126;2023-02-23T13:34:12;42.30;;;21.38;;
9140;SDS011;46330;50.822;7.126;2023-02-23T13:36:48;45.33;;;19.55;;
9140;SDS011;46330;50.822;7.126;2023-02-23T13:39:30;40.50;;;19.13;;
9140;SDS011;46330;50.822;7.126;2023-02-23T13:42:13;37.95;;;19.33;;
9140;SDS011;46330;50.822;7.126;2023-02-23T13:45:04;37.15;;;18.13;;
9140;SDS011;46330;50.822;7.126;2023-02-23T13:47:48;40.97;;;17.13;;
9140;SDS011;46330;50.822;7.126;2023-02-23T13:50:24;34.28;;;18.33;;
9140;SDS011;46330;50.822;7.126;2023-02-23T13:52:59;39.78;;;19.73;;
9140;SDS011;46330;50.822;7.126;2023-02-23T13:55:46;43.10;;;21.63;;
9140;SDS011;46330;50.822;7.126;2023-02-23T13:58:17;40.42;;;19.92;;
9140;SDS011;46330;50.822;7.126;2023-02-23T14:00:53;40.85;;;20.52;;
9140;SDS011;46330;50.822;7.126;2023-02-23T14:03:32;45.28;;;20.95;;
9140;SDS011;46330;50.822;7.126;2023-02-23T14:06:09;46.00;;;21.88;;
9140;SDS011;46330;50.822;7.126;2023-02-23T14:08:40;41.63;;;20.38;;
9140;SDS011;46330;50.822;7.126;2023-02-23T14:14:05;41.77;;;20.80;;
9140;SDS011;46330;50.822;7.126;2023-02-23T14:16:33;36.47;;;18.92;;
9140;SDS011;46330;50.822;7.126;2023-02-23T14:19:13;41.80;;;21.17;;
9140;SDS011;46330;50.822;7.126;2023-02-23T14:21:58;37.78;;;19.15;;
9140;SDS011;46330;50.822;7.126;2023-02-23T14:24:30;40.65;;;19.75;;
9140;SDS011;46330;50.822;7.126;2023-02-23T14:30:24;41.03;;;20.08;;
9140;SDS011;46330;50.822;7.126;2023-02-23T14:32:53;44.53;;;21.38;;
9140;SDS011;46330;50.822;7.126;2023-02-23T14:35:35;49.15;;;22.52;;
9140;SDS011;46330;50.822;7.126;2023-02-23T14:38:15;46.55;;;21.02;;
9140;SDS011;46330;50.822;7.126;2023-02-23T14:40:55;50.42;;;22.25;;
9140;SDS011;46330;50.822;7.126;2023-02-23T14:43:40;54.03;;;24.70;;
9140;SDS011;46330;50.822;7.126;2023-02-23T14:46:17;49.38;;;24.23;;
9140;SDS011;46330;50.822;7.126;2023-02-23T14:48:55;48.75;;;22.05;;
9140;SDS011;46330;50.822;7.126;2023-02-23T14:51:30;50.22;;;22.25;;
9140;SDS011;46330;50.822;7.126;2023-02-23T14:54:08;45.78;;;21.50;;
9140;SDS011;46330;50.822;7.126;2023-02-23T14:56:43;46.05;;;21.45;;
9140;SDS011;46330;50.822;7.126;2023-02-23T14:59:16;47.88;;;20.90;;
9140;SDS011;46330;50.822;7.126;2023-02-23T15:01:49;45.55;;;20.95;;
9140;SDS011;46330;50.822;7.126;2023-02-23T15:04:18;45.53;;;20.40;;
9140;SDS011;46330;50.822;7.126;2023-02-23T15:06:50;38.22;;;17.65;;
9140;SDS011;46330;50.822;7.126;2023-02-23T15:09:24;35.17;;;17.52;;
9140;SDS011;46330;50.822;7.126;2023-02-23T15:12:06;34.60;;;17.95;;
9140;SDS011;46330;50.822;7.126;2023-02-23T15:14:40;33.47;;;16.80;;
9140;SDS011;46330;50.822;7.126;2023-02-23T15:17:13;30.80;;;17.13;;
9140;SDS011;46330;50.822;7.126;2023-02-23T15:19:44;32.47;;;16.30;;
9140;SDS011;46330;50.822;7.126;2023-02-23T15:22:22;33.30;;;15.90;;
9140;SDS011;46330;50.822;7.126;2023-02-23T15:24:54;34.78;;;17.33;;
9140;SDS011;46330;50.822;7.126;2023-02-23T15:27:27;33.47;;;16.67;;
9140;SDS011;46330;50.822;7.126;2023-02-23T15:29:57;36.97;;;18.55;;
9140;SDS011;46330;50.822;7.126;2023-02-23T15:32:26;38.05;;;18.25;;
9140;SDS011;46330;50.822;7.126;2023-02-23T15:34:54;37.72;;;17.77;;